createdAt,value
2022-10-22T00:04:51.669Z,81.24
2022-10-22T00:09:55.729Z,81.51
2022-10-22T00:15:03.886Z,81.56
2022-10-22T00:20:08.859Z,81.59
2022-10-22T00:25:12.175Z,81.64
2022-10-22T00:30:16.218Z,81.84
2022-10-22T00:35:20.681Z,81.87
2022-10-22T00:40:24.359Z,81.99
2022-10-22T00:45:29.784Z,81.92
2022-10-22T00:50:43.363Z,81.92
2022-10-22T00:55:53.008Z,81.92
2022-10-22T01:00:57.245Z,82.10
2022-10-22T01:06:05.670Z,82.19
2022-10-22T01:11:41.241Z,82.22
2022-10-22T01:16:51.065Z,82.41
2022-10-22T01:22:06.227Z,82.33
2022-10-22T01:27:44.168Z,82.21
2022-10-22T01:32:53.429Z,82.20
2022-10-22T01:38:02.255Z,82.24
2022-10-22T01:43:09.823Z,82.33
2022-10-22T01:48:27.819Z,82.25
2022-10-22T01:53:37.520Z,82.16
2022-10-22T01:58:49.472Z,82.16
2022-10-22T02:04:23.637Z,82.13
2022-10-22T02:09:30.117Z,82.09
2022-10-22T02:14:38.222Z,82.20
2022-10-22T02:19:49.413Z,81.98
2022-10-22T02:24:53.709Z,82.13
2022-10-22T02:30:20.003Z,82.26
2022-10-22T02:35:27.133Z,82.18
2022-10-22T02:40:32.362Z,82.43
2022-10-22T02:45:39.751Z,82.47
2022-10-22T02:50:43.826Z,82.41
2022-10-22T02:55:47.721Z,82.31
2022-10-22T03:00:52.897Z,82.45
2022-10-22T03:05:57.898Z,82.39
2022-10-22T03:11:01.751Z,82.58
2022-10-22T03:16:06.771Z,82.35
2022-10-22T03:21:25.190Z,82.35
2022-10-22T03:26:29.862Z,82.10
2022-10-22T03:31:33.201Z,81.97
2022-10-22T03:36:37.637Z,82.17
2022-10-22T03:41:42.684Z,82.23
2022-10-22T03:46:45.704Z,82.41
2022-10-22T03:51:49.617Z,82.21
2022-10-22T03:56:53.468Z,82.16
2022-10-22T04:01:56.575Z,81.89
2022-10-22T04:07:00.558Z,81.64
2022-10-22T04:12:10.215Z,81.69
2022-10-22T04:17:14.312Z,81.58
2022-10-22T04:22:18.687Z,81.82
2022-10-22T04:27:22.683Z,81.72
2022-10-22T04:32:28.785Z,81.75
2022-10-22T04:37:33.541Z,81.70
2022-10-22T04:42:38.512Z,81.74
2022-10-22T04:47:42.895Z,81.81
2022-10-22T04:52:47.226Z,81.68
2022-10-22T04:57:51.662Z,81.58
2022-10-22T05:02:56.421Z,81.40
2022-10-22T05:07:59.974Z,81.44
2022-10-22T05:13:05.191Z,81.48
2022-10-22T05:18:09.126Z,81.57
2022-10-22T05:23:13.247Z,81.57
2022-10-22T05:28:16.605Z,81.48
2022-10-22T05:33:24.143Z,81.44
2022-10-22T05:38:28.914Z,81.48
2022-10-22T05:43:33.066Z,81.37
2022-10-22T05:48:37.502Z,81.15
2022-10-22T05:53:43.081Z,81.30
2022-10-22T05:58:48.556Z,81.03
2022-10-22T06:03:56.971Z,80.98
2022-10-22T06:09:32.180Z,81.08
2022-10-22T06:14:35.244Z,81.32
2022-10-22T06:19:38.900Z,81.04
2022-10-22T06:24:45.177Z,80.70
2022-10-22T06:29:48.803Z,80.87
2022-10-22T06:34:53.084Z,80.83
2022-10-22T06:39:56.201Z,80.75
2022-10-22T06:50:10.394Z,80.79
2022-10-22T06:55:14.664Z,80.76
2022-10-22T07:00:19.034Z,80.65
2022-10-22T07:05:23.385Z,80.46
2022-10-22T07:10:30.049Z,80.42
2022-10-22T07:15:36.101Z,80.16
2022-10-22T07:20:40.785Z,80.17
2022-10-22T07:25:45.652Z,80.32
2022-10-22T07:30:50.196Z,79.91
2022-10-22T07:35:59.122Z,79.88
2022-10-22T07:41:03.184Z,80.08
2022-10-22T07:46:09.385Z,80.07
2022-10-22T07:51:14.897Z,79.88
2022-10-22T07:56:20.272Z,79.61
2022-10-22T08:01:24.692Z,79.68
2022-10-22T08:06:29.308Z,79.60
2022-10-22T08:11:33.837Z,79.62
2022-10-22T08:16:36.951Z,79.59
2022-10-22T08:21:40.404Z,79.53
2022-10-22T08:26:43.766Z,79.66
2022-10-22T08:31:47.605Z,79.60
2022-10-22T08:36:52.368Z,79.69
2022-10-22T08:42:29.866Z,79.66
2022-10-22T08:47:43.749Z,79.64
2022-10-22T08:52:54.667Z,79.43
2022-10-22T08:58:20.728Z,79.64
2022-10-22T09:03:54.532Z,79.52
2022-10-22T09:09:00.491Z,79.38
2022-10-22T09:14:05.569Z,79.04
2022-10-22T09:19:27.773Z,79.12
2022-10-22T09:24:44.663Z,78.50
2022-10-22T09:29:49.806Z,78.96
2022-10-22T09:34:58.771Z,78.91
2022-10-22T09:40:07.237Z,78.84
2022-10-22T09:45:25.443Z,78.77
2022-10-22T09:50:44.233Z,78.78
2022-10-22T09:55:58.276Z,79.11
2022-10-22T10:01:06.119Z,78.98
2022-10-22T10:06:13.349Z,79.22
2022-10-22T10:11:18.323Z,79.10
2022-10-22T10:16:29.926Z,79.10
2022-10-22T10:21:59.831Z,79.02
2022-10-22T10:27:29.415Z,79.08
2022-10-22T10:32:43.821Z,79.27
2022-10-22T10:38:06.808Z,79.27
2022-10-22T10:43:36.680Z,79.27
2022-10-22T10:49:00.596Z,79.23
2022-10-22T10:54:30.522Z,79.27
2022-10-22T11:00:09.411Z,79.31
2022-10-22T11:05:38.335Z,79.60
2022-10-22T11:10:53.449Z,79.57
2022-10-22T11:16:30.156Z,79.64
2022-10-22T11:21:42.800Z,79.55
2022-10-22T11:26:54.045Z,79.39
2022-10-22T11:32:00.000Z,79.54
2022-10-22T11:37:05.415Z,79.46
2022-10-22T11:42:50.560Z,79.29
2022-10-22T11:48:12.285Z,78.95
2022-10-22T11:53:15.343Z,79.28
2022-10-22T11:58:31.020Z,79.58
2022-10-22T12:03:34.957Z,79.55
2022-10-22T12:08:53.482Z,79.72
2022-10-22T12:14:15.323Z,79.39
2022-10-22T12:19:24.879Z,79.40
2022-10-22T12:24:37.594Z,79.63
2022-10-22T12:29:41.829Z,79.71
2022-10-22T12:34:53.827Z,79.66
2022-10-22T12:39:57.791Z,79.90
2022-10-22T12:45:01.908Z,80.09
2022-10-22T12:50:06.515Z,80.27
2022-10-22T12:55:17.542Z,80.41
2022-10-22T13:00:27.835Z,80.20
2022-10-22T13:05:39.888Z,80.24
2022-10-22T13:10:51.315Z,80.07
2022-10-22T13:15:56.477Z,80.03
2022-10-22T13:21:03.931Z,80.04
2022-10-22T13:26:13.494Z,80.24
2022-10-22T13:31:24.328Z,80.33
2022-10-22T13:36:28.603Z,80.26
2022-10-22T13:41:35.044Z,80.36
2022-10-22T13:46:43.112Z,80.59
2022-10-22T13:51:48.442Z,80.55
2022-10-22T13:56:53.113Z,80.45
2022-10-22T14:01:59.882Z,80.57
2022-10-22T14:07:04.269Z,80.83
2022-10-22T14:12:16.773Z,80.71
2022-10-22T14:17:20.169Z,80.78
2022-10-22T14:22:29.330Z,80.62
2022-10-22T14:27:33.302Z,80.93
2022-10-22T14:32:36.861Z,80.56
2022-10-22T14:37:42.766Z,80.71
2022-10-22T14:42:48.318Z,80.93
2022-10-22T14:47:52.730Z,80.99
2022-10-22T14:52:59.295Z,81.09
2022-10-22T14:58:02.704Z,81.13
2022-10-22T15:03:06.537Z,81.49
2022-10-22T15:08:10.839Z,81.22
2022-10-22T15:13:15.210Z,81.44
2022-10-22T15:18:18.725Z,81.63
2022-10-22T15:23:22.762Z,81.91
2022-10-22T15:28:27.569Z,81.99
2022-10-22T15:33:31.615Z,81.95
2022-10-22T15:38:35.080Z,82.04
2022-10-22T15:43:38.832Z,82.45
2022-10-22T15:48:43.659Z,82.53
2022-10-22T15:54:09.253Z,82.48
2022-10-22T15:59:16.470Z,82.45
2022-10-22T16:04:22.342Z,82.41
2022-10-22T16:09:28.360Z,82.86
2022-10-22T16:14:31.732Z,82.58
2022-10-22T16:19:35.173Z,82.72
2022-10-22T16:24:42.451Z,82.78
2022-10-22T16:29:46.033Z,82.92
2022-10-22T16:34:49.654Z,82.82
2022-10-22T16:39:56.388Z,83.03
2022-10-22T16:45:00.526Z,82.99
2022-10-22T16:50:04.328Z,83.35
2022-10-22T16:55:08.774Z,83.35
2022-10-22T17:00:16.372Z,83.62
2022-10-22T17:05:22.889Z,83.58
2022-10-22T17:10:28.491Z,83.71
2022-10-22T17:15:34.753Z,83.74
2022-10-22T17:20:44.443Z,83.78
2022-10-22T17:25:50.079Z,83.67
2022-10-22T17:31:09.904Z,83.95
2022-10-22T17:36:14.484Z,84.04
2022-10-22T17:41:24.316Z,84.00
2022-10-22T17:46:32.108Z,83.76
2022-10-22T17:51:35.843Z,84.37
2022-10-22T17:56:44.335Z,84.42
2022-10-22T18:01:54.744Z,84.22
2022-10-22T18:07:02.520Z,84.49
2022-10-22T18:12:09.449Z,84.92
2022-10-22T18:17:15.996Z,84.91
2022-10-22T18:22:22.616Z,84.70
2022-10-22T18:27:31.308Z,84.77
2022-10-22T18:32:36.310Z,84.57
2022-10-22T18:37:43.768Z,84.75
2022-10-22T18:42:49.892Z,85.01
2022-10-22T18:47:55.324Z,85.08
2022-10-22T18:53:00.369Z,85.10
2022-10-22T18:58:06.488Z,85.11
2022-10-22T19:03:15.837Z,85.11
2022-10-22T19:08:21.656Z,85.29
2022-10-22T19:13:26.711Z,85.10
2022-10-22T19:18:32.300Z,85.01
2022-10-22T19:23:37.466Z,84.93
2022-10-22T19:28:43.573Z,84.79
2022-10-22T19:33:49.169Z,85.26
2022-10-22T19:38:54.779Z,85.10
2022-10-22T19:44:01.261Z,85.40
2022-10-22T19:49:09.846Z,85.25
2022-10-22T19:54:21.357Z,85.39
2022-10-22T19:59:29.966Z,85.52
2022-10-22T20:04:37.446Z,85.40
2022-10-22T20:09:45.158Z,85.47
2022-10-22T20:14:51.606Z,85.38
2022-10-22T20:19:57.404Z,85.40
2022-10-22T20:25:02.604Z,85.72
2022-10-22T20:30:08.501Z,85.76
2022-10-22T20:35:15.284Z,86.21
2022-10-22T20:40:22.323Z,86.07
2022-10-22T20:45:28.058Z,85.65
2022-10-22T20:50:33.192Z,85.72
2022-10-22T20:55:38.128Z,85.87
2022-10-22T21:00:44.476Z,85.82
2022-10-22T21:05:49.138Z,86.06
2022-10-22T21:10:53.195Z,86.09
2022-10-22T21:15:57.182Z,85.78
2022-10-22T21:21:01.378Z,86.06
2022-10-22T21:26:06.287Z,85.87
2022-10-22T21:31:11.158Z,86.12
2022-10-22T21:36:18.991Z,86.24
2022-10-22T21:41:25.124Z,86.15
2022-10-22T21:46:29.163Z,86.37
2022-10-22T21:51:36.825Z,86.35
2022-10-22T21:56:41.244Z,86.46
2022-10-22T22:01:44.963Z,86.35
2022-10-22T22:06:48.443Z,86.31
2022-10-22T22:11:51.903Z,86.49
2022-10-22T22:16:58.348Z,86.30
2022-10-22T22:22:01.878Z,86.48
2022-10-22T22:27:05.686Z,86.46
2022-10-22T22:32:10.948Z,86.49
2022-10-22T22:37:15.173Z,86.66
2022-10-22T22:42:18.669Z,86.56
2022-10-22T22:47:23.615Z,86.72
2022-10-22T22:52:27.636Z,86.49
2022-10-22T22:57:31.342Z,86.42
2022-10-22T23:02:35.502Z,86.49
2022-10-22T23:07:39.967Z,86.58
2022-10-22T23:12:44.704Z,86.55
2022-10-22T23:17:51.818Z,86.30
2022-10-22T23:22:56.598Z,86.31
2022-10-22T23:28:01.213Z,86.05
2022-10-22T23:33:05.327Z,85.91
2022-10-22T23:38:09.690Z,85.85
2022-10-22T23:43:13.980Z,86.02
2022-10-22T23:48:18.574Z,86.40
2022-10-22T23:53:23.405Z,86.30
2022-10-22T23:58:27.133Z,86.14
